sensor_id;sensor_type;location;lat;lon;timestamp;pressure;altitude;pressure_sealevel;temperature;humidity
81961;BME280;71462;50.650;6.888;2023-08-24T00:01:53;99929.63;;;20.80;45.52
81961;BME280;71462;50.650;6.888;2023-08-24T00:03:55;99923.41;;;20.79;45.81
81961;BME280;71462;50.650;6.888;2023-08-24T00:05:58;99920.19;;;20.90;45.58
81961;BME280;71462;50.650;6.888;2023-08-24T00:08:01;99920.34;;;20.97;45.49
81961;BME280;71462;50.650;6.888;2023-08-24T00:10:06;99922.19;;;20.93;45.59
81961;BME280;71462;50.650;6.888;2023-08-24T00:12:09;99922.63;;;20.79;46.17
81961;BME280;71462;50.650;6.888;2023-08-24T00:14:11;99920.59;;;20.76;46.56
81961;BME280;71462;50.650;6.888;2023-08-24T00:16:14;99922.31;;;20.68;46.35
81961;BME280;71462;50.650;6.888;2023-08-24T00:18:18;99919.50;;;20.65;47.02
81961;BME280;71462;50.650;6.888;2023-08-24T00:20:23;99918.53;;;20.57;47.40
81961;BME280;71462;50.650;6.888;2023-08-24T00:22:26;99913.78;;;20.54;46.72
81961;BME280;71462;50.650;6.888;2023-08-24T00:24:28;99913.34;;;20.52;46.66
81961;BME280;71462;50.650;6.888;2023-08-24T00:26:32;99910.97;;;20.50;46.18
81961;BME280;71462;50.650;6.888;2023-08-24T00:28:36;99912.13;;;20.49;45.98
81961;BME280;71462;50.650;6.888;2023-08-24T00:30:39;99911.22;;;20.45;46.36
81961;BME280;71462;50.650;6.888;2023-08-24T00:32:42;99912.56;;;20.51;46.11
81961;BME280;71462;50.650;6.888;2023-08-24T00:34:44;99916.25;;;20.59;46.10
81961;BME280;71462;50.650;6.888;2023-08-24T00:36:47;99909.25;;;20.58;46.12
81961;BME280;71462;50.650;6.888;2023-08-24T00:38:50;99910.09;;;20.46;46.12
81961;BME280;71462;50.650;6.888;2023-08-24T00:40:55;99911.13;;;20.42;46.74
81961;BME280;71462;50.650;6.888;2023-08-24T00:42:59;99904.78;;;20.38;46.83
81961;BME280;71462;50.650;6.888;2023-08-24T00:45:02;99903.09;;;20.33;46.79
81961;BME280;71462;50.650;6.888;2023-08-24T00:47:06;99904.94;;;20.29;46.97
81961;BME280;71462;50.650;6.888;2023-08-24T00:49:09;99902.56;;;20.28;47.05
81961;BME280;71462;50.650;6.888;2023-08-24T00:51:14;99902.56;;;20.28;47.15
81961;BME280;71462;50.650;6.888;2023-08-24T00:53:16;99904.81;;;20.26;47.25
81961;BME280;71462;50.650;6.888;2023-08-24T00:55:20;99910.22;;;20.26;47.35
81961;BME280;71462;50.650;6.888;2023-08-24T00:57:24;99900.84;;;20.23;47.24
81961;BME280;71462;50.650;6.888;2023-08-24T00:59:28;99900.06;;;20.23;46.64
81961;BME280;71462;50.650;6.888;2023-08-24T01:01:31;99895.06;;;20.25;47.13
81961;BME280;71462;50.650;6.888;2023-08-24T01:03:34;99902.44;;;20.24;46.69
81961;BME280;71462;50.650;6.888;2023-08-24T01:05:37;99904.81;;;20.26;46.76
81961;BME280;71462;50.650;6.888;2023-08-24T01:07:40;99905.59;;;20.26;46.94
81961;BME280;71462;50.650;6.888;2023-08-24T01:09:43;99913.97;;;20.21;47.22
81961;BME280;71462;50.650;6.888;2023-08-24T01:11:58;99911.16;;;20.17;47.49
81961;BME280;71462;50.650;6.888;2023-08-24T01:14:08;99908.69;;;20.12;47.53
81961;BME280;71462;50.650;6.888;2023-08-24T01:16:20;99907.91;;;20.12;47.13
81961;BME280;71462;50.650;6.888;2023-08-24T01:18:30;99902.81;;;20.10;47.50
81961;BME280;71462;50.650;6.888;2023-08-24T01:20:34;99903.16;;;20.09;47.92
81961;BME280;71462;50.650;6.888;2023-08-24T01:22:46;99897.84;;;20.00;48.36
81961;BME280;71462;50.650;6.888;2023-08-24T01:24:54;99892.91;;;19.90;48.49
81961;BME280;71462;50.650;6.888;2023-08-24T01:27:04;99898.66;;;19.88;48.60
81961;BME280;71462;50.650;6.888;2023-08-24T01:29:08;99894.03;;;19.89;47.77
81961;BME280;71462;50.650;6.888;2023-08-24T01:31:11;99886.69;;;19.89;47.99
81961;BME280;71462;50.650;6.888;2023-08-24T01:33:16;99875.84;;;19.89;47.57
81961;BME280;71462;50.650;6.888;2023-08-24T01:35:19;99875.84;;;19.89;47.14
81961;BME280;71462;50.650;6.888;2023-08-24T01:37:22;99873.66;;;19.95;47.47
81961;BME280;71462;50.650;6.888;2023-08-24T01:39:37;99872.09;;;19.94;47.54
81961;BME280;71462;50.650;6.888;2023-08-24T01:41:47;99869.28;;;19.90;47.41
81961;BME280;71462;50.650;6.888;2023-08-24T01:43:55;99865.66;;;19.86;47.76
81961;BME280;71462;50.650;6.888;2023-08-24T01:46:03;99867.59;;;19.86;47.37
81961;BME280;71462;50.650;6.888;2023-08-24T01:48:07;99863.84;;;19.90;47.46
81961;BME280;71462;50.650;6.888;2023-08-24T01:50:11;99863.94;;;19.94;47.45
81961;BME280;71462;50.650;6.888;2023-08-24T01:52:15;99865.31;;;19.88;47.78
81961;BME280;71462;50.650;6.888;2023-08-24T01:54:21;99852.53;;;19.88;47.68
81961;BME280;71462;50.650;6.888;2023-08-24T01:56:24;99842.25;;;19.94;47.26
81961;BME280;71462;50.650;6.888;2023-08-24T01:58:30;99839.06;;;19.92;48.39
81961;BME280;71462;50.650;6.888;2023-08-24T02:00:35;99842.38;;;19.85;48.23
81961;BME280;71462;50.650;6.888;2023-08-24T02:02:38;99841.16;;;19.83;48.56
81961;BME280;71462;50.650;6.888;2023-08-24T02:04:42;99830.06;;;19.88;47.80
81961;BME280;71462;50.650;6.888;2023-08-24T02:06:45;99828.53;;;20.03;46.99
81961;BME280;71462;50.650;6.888;2023-08-24T02:08:48;99827.50;;;20.07;46.67
81961;BME280;71462;50.650;6.888;2023-08-24T02:10:52;99827.72;;;20.02;46.43
81961;BME280;71462;50.650;6.888;2023-08-24T02:12:55;99824.13;;;19.98;46.81
81961;BME280;71462;50.650;6.888;2023-08-24T02:14:58;99826.25;;;20.05;47.00
81961;BME280;71462;50.650;6.888;2023-08-24T02:17:02;99823.09;;;20.03;46.79
81961;BME280;71462;50.650;6.888;2023-08-24T02:19:05;99821.41;;;19.98;46.83
81961;BME280;71462;50.650;6.888;2023-08-24T02:21:08;99817.13;;;19.97;46.95
81961;BME280;71462;50.650;6.888;2023-08-24T02:23:13;99810.81;;;19.93;47.41
81961;BME280;71462;50.650;6.888;2023-08-24T02:25:15;99805.03;;;19.95;47.52
81961;BME280;71462;50.650;6.888;2023-08-24T02:27:18;99795.75;;;19.96;47.42
81961;BME280;71462;50.650;6.888;2023-08-24T02:29:21;99790.78;;;19.98;47.57
81961;BME280;71462;50.650;6.888;2023-08-24T02:31:23;99790.69;;;19.94;48.28
81961;BME280;71462;50.650;6.888;2023-08-24T02:33:27;99790.50;;;19.87;48.42
81961;BME280;71462;50.650;6.888;2023-08-24T02:35:32;99787.97;;;19.94;47.61
81961;BME280;71462;50.650;6.888;2023-08-24T02:37:35;99786.84;;;19.95;48.63
81961;BME280;71462;50.650;6.888;2023-08-24T02:39:38;99788.22;;;19.89;48.70
81961;BME280;71462;50.650;6.888;2023-08-24T02:41:40;99781.91;;;19.85;49.20
81961;BME280;71462;50.650;6.888;2023-08-24T02:43:43;99784.97;;;19.83;49.14
81961;BME280;71462;50.650;6.888;2023-08-24T02:45:48;99785.44;;;19.73;49.33
81961;BME280;71462;50.650;6.888;2023-08-24T02:47:50;99785.09;;;19.75;49.31
81961;BME280;71462;50.650;6.888;2023-08-24T02:49:54;99779.81;;;19.66;49.66
81961;BME280;71462;50.650;6.888;2023-08-24T02:51:58;99777.44;;;19.65;50.05
81961;BME280;71462;50.650;6.888;2023-08-24T02:54:01;99783.88;;;19.60;49.45
81961;BME280;71462;50.650;6.888;2023-08-24T02:56:04;99793.16;;;19.59;49.48
81961;BME280;71462;50.650;6.888;2023-08-24T02:58:06;99785.22;;;19.66;50.17
81961;BME280;71462;50.650;6.888;2023-08-24T03:00:10;99795.03;;;19.71;49.58
81961;BME280;71462;50.650;6.888;2023-08-24T03:02:15;99796.41;;;19.65;50.23
81961;BME280;71462;50.650;6.888;2023-08-24T03:04:17;99790.44;;;19.59;50.39
81961;BME280;71462;50.650;6.888;2023-08-24T03:06:22;99787.63;;;19.55;50.43
81961;BME280;71462;50.650;6.888;2023-08-24T03:08:25;99786.59;;;19.48;50.78
81961;BME280;71462;50.650;6.888;2023-08-24T03:10:28;99780.50;;;19.51;50.85
81961;BME280;71462;50.650;6.888;2023-08-24T03:12:30;99787.50;;;19.52;51.12
81961;BME280;71462;50.650;6.888;2023-08-24T03:14:33;99781.72;;;19.66;50.46
81961;BME280;71462;50.650;6.888;2023-08-24T03:16:37;99784.53;;;19.69;50.15
81961;BME280;71462;50.650;6.888;2023-08-24T03:18:40;99794.59;;;19.69;50.44
81961;BME280;71462;50.650;6.888;2023-08-24T03:20:43;99788.28;;;19.65;50.92
81961;BME280;71462;50.650;6.888;2023-08-24T03:22:47;99793.25;;;19.63;51.02
81961;BME280;71462;50.650;6.888;2023-08-24T03:24:50;99797.22;;;19.53;52.27
81961;BME280;71462;50.650;6.888;2023-08-24T03:26:53;99811.00;;;19.48;52.40
81961;BME280;71462;50.650;6.888;2023-08-24T03:28:55;99814.06;;;19.22;53.13
81961;BME280;71462;50.650;6.888;2023-08-24T03:30:58;99826.94;;;19.13;53.47
81961;BME280;71462;50.650;6.888;2023-08-24T03:33:01;99839.03;;;19.27;52.93
81961;BME280;71462;50.650;6.888;2023-08-24T03:35:05;99838.22;;;19.39;52.57
81961;BME280;71462;50.650;6.888;2023-08-24T03:37:08;99846.94;;;19.33;52.92
81961;BME280;71462;50.650;6.888;2023-08-24T03:39:12;99865.34;;;19.39;52.29
81961;BME280;71462;50.650;6.888;2023-08-24T03:41:14;99867.69;;;19.41;52.43
81961;BME280;71462;50.650;6.888;2023-08-24T03:43:17;99882.75;;;19.50;51.88
81961;BME280;71462;50.650;6.888;2023-08-24T03:45:20;99896.09;;;19.55;51.24
81961;BME280;71462;50.650;6.888;2023-08-24T03:47:22;99903.91;;;19.57;51.16
81961;BME280;71462;50.650;6.888;2023-08-24T03:49:25;99897.91;;;19.64;50.92
81961;BME280;71462;50.650;6.888;2023-08-24T03:51:28;99898.94;;;19.59;50.90
81961;BME280;71462;50.650;6.888;2023-08-24T03:53:31;99902.44;;;19.59;50.61
81961;BME280;71462;50.650;6.888;2023-08-24T03:55:35;99902.53;;;19.51;51.50
81961;BME280;71462;50.650;6.888;2023-08-24T03:57:37;99913.78;;;19.41;51.88
81961;BME280;71462;50.650;6.888;2023-08-24T03:59:39;99910.44;;;19.44;51.75
81961;BME280;71462;50.650;6.888;2023-08-24T04:01:42;99909.06;;;19.38;51.81
81961;BME280;71462;50.650;6.888;2023-08-24T04:03:44;99900.56;;;19.39;51.83
81961;BME280;71462;50.650;6.888;2023-08-24T04:05:47;99898.53;;;19.36;51.67
81961;BME280;71462;50.650;6.888;2023-08-24T04:07:50;99886.13;;;19.35;51.99
81961;BME280;71462;50.650;6.888;2023-08-24T04:09:52;99892.22;;;19.32;51.53
81961;BME280;71462;50.650;6.888;2023-08-24T04:11:56;99895.72;;;19.20;51.59
81961;BME280;71462;50.650;6.888;2023-08-24T04:13:58;99891.06;;;19.09;52.11
81961;BME280;71462;50.650;6.888;2023-08-24T04:16:01;99890.41;;;19.12;51.83
81961;BME280;71462;50.650;6.888;2023-08-24T04:18:05;99890.88;;;19.14;51.63
81961;BME280;71462;50.650;6.888;2023-08-24T04:20:09;99897.31;;;19.21;51.92
81961;BME280;71462;50.650;6.888;2023-08-24T04:22:12;99902.16;;;19.16;52.54
81961;BME280;71462;50.650;6.888;2023-08-24T04:24:15;99902.72;;;19.21;52.37
81961;BME280;71462;50.650;6.888;2023-08-24T04:26:17;99905.44;;;19.21;52.88
81961;BME280;71462;50.650;6.888;2023-08-24T04:28:22;99901.59;;;19.22;53.13
81961;BME280;71462;50.650;6.888;2023-08-24T04:30:24;99894.16;;;19.44;51.86
81961;BME280;71462;50.650;6.888;2023-08-24T04:32:27;99897.00;;;19.59;52.15
81961;BME280;71462;50.650;6.888;2023-08-24T04:34:30;99893.13;;;19.73;52.40
81961;BME280;71462;50.650;6.888;2023-08-24T04:36:33;99878.69;;;19.81;51.89
81961;BME280;71462;50.650;6.888;2023-08-24T04:38:36;99868.81;;;19.88;51.88
81961;BME280;71462;50.650;6.888;2023-08-24T04:40:46;99868.34;;;19.99;52.19
81961;BME280;71462;50.650;6.888;2023-08-24T04:42:48;99863.69;;;19.99;52.02
81961;BME280;71462;50.650;6.888;2023-08-24T04:44:52;99866.63;;;20.06;51.76
81961;BME280;71462;50.650;6.888;2023-08-24T04:46:55;99857.06;;;20.25;50.77
81961;BME280;71462;50.650;6.888;2023-08-24T04:48:57;99858.47;;;20.18;51.19
81961;BME280;71462;50.650;6.888;2023-08-24T04:51:00;99866.50;;;20.15;51.18
81961;BME280;71462;50.650;6.888;2023-08-24T04:53:03;99856.00;;;20.01;51.99
81961;BME280;71462;50.650;6.888;2023-08-24T04:55:08;99851.66;;;19.84;52.85
81961;BME280;71462;50.650;6.888;2023-08-24T04:57:11;99852.91;;;19.50;54.17
81961;BME280;71462;50.650;6.888;2023-08-24T04:59:14;99858.69;;;19.12;55.60
81961;BME280;71462;50.650;6.888;2023-08-24T05:01:18;99833.75;;;18.74;57.31
81961;BME280;71462;50.650;6.888;2023-08-24T05:03:21;99810.59;;;18.19;59.08
81961;BME280;71462;50.650;6.888;2023-08-24T05:05:24;99787.75;;;18.08;59.34
81961;BME280;71462;50.650;6.888;2023-08-24T05:07:26;99790.56;;;17.69;60.75
81961;BME280;71462;50.650;6.888;2023-08-24T05:09:29;99789.78;;;17.69;60.05
81961;BME280;71462;50.650;6.888;2023-08-24T05:11:31;99786.84;;;18.03;59.10
81961;BME280;71462;50.650;6.888;2023-08-24T05:13:34;99775.78;;;18.29;58.86
81961;BME280;71462;50.650;6.888;2023-08-24T05:15:37;99756.00;;;18.17;59.60
81961;BME280;71462;50.650;6.888;2023-08-24T05:17:41;99736.84;;;18.01;60.75
81961;BME280;71462;50.650;6.888;2023-08-24T05:19:43;99720.81;;;17.84;61.30
81961;BME280;71462;50.650;6.888;2023-08-24T05:21:46;99726.47;;;17.70;61.59
81961;BME280;71462;50.650;6.888;2023-08-24T05:23:48;99742.38;;;17.71;61.50
81961;BME280;71462;50.650;6.888;2023-08-24T05:25:51;99756.81;;;18.17;60.04
81961;BME280;71462;50.650;6.888;2023-08-24T05:27:54;99748.06;;;18.45;59.11
81961;BME280;71462;50.650;6.888;2023-08-24T05:29:56;99750.22;;;18.76;58.54
81961;BME280;71462;50.650;6.888;2023-08-24T05:31:59;99755.34;;;19.02;57.74
81961;BME280;71462;50.650;6.888;2023-08-24T05:34:03;99764.38;;;19.18;57.27
81961;BME280;71462;50.650;6.888;2023-08-24T05:36:09;99767.88;;;19.43;56.37
81961;BME280;71462;50.650;6.888;2023-08-24T05:38:12;99767.72;;;19.39;57.78
81961;BME280;71462;50.650;6.888;2023-08-24T05:40:17;99767.06;;;19.30;58.49
81961;BME280;71462;50.650;6.888;2023-08-24T05:42:19;99769.75;;;19.54;57.66
81961;BME280;71462;50.650;6.888;2023-08-24T05:44:22;99765.78;;;19.64;57.53
81961;BME280;71462;50.650;6.888;2023-08-24T05:46:25;99757.66;;;19.64;56.92
81961;BME280;71462;50.650;6.888;2023-08-24T05:48:28;99755.03;;;19.80;56.56
81961;BME280;71462;50.650;6.888;2023-08-24T05:50:33;99748.84;;;19.95;56.05
81961;BME280;71462;50.650;6.888;2023-08-24T05:52:36;99744.56;;;19.94;55.79
81961;BME280;71462;50.650;6.888;2023-08-24T05:54:39;99737.47;;;20.05;56.38
81961;BME280;71462;50.650;6.888;2023-08-24T05:56:41;99732.53;;;20.07;56.16
81961;BME280;71462;50.650;6.888;2023-08-24T05:58:44;99725.06;;;20.04;56.02
81961;BME280;71462;50.650;6.888;2023-08-24T06:00:47;99721.53;;;19.88;56.81
81961;BME280;71462;50.650;6.888;2023-08-24T06:02:49;99725.22;;;19.68;57.29
81961;BME280;71462;50.650;6.888;2023-08-24T06:04:52;99726.09;;;19.19;58.29
81961;BME280;71462;50.650;6.888;2023-08-24T06:06:56;99718.56;;;19.13;58.66
81961;BME280;71462;50.650;6.888;2023-08-24T06:08:58;99700.94;;;18.94;58.85
81961;BME280;71462;50.650;6.888;2023-08-24T06:11:01;99699.78;;;18.71;59.53
81961;BME280;71462;50.650;6.888;2023-08-24T06:13:04;99694.59;;;18.66;59.55
81961;BME280;71462;50.650;6.888;2023-08-24T06:15:06;99693.25;;;18.60;59.32
81961;BME280;71462;50.650;6.888;2023-08-24T06:17:11;99700.59;;;19.08;58.16
81961;BME280;71462;50.650;6.888;2023-08-24T06:19:13;99703.50;;;19.27;57.75
81961;BME280;71462;50.650;6.888;2023-08-24T06:21:15;99692.91;;;19.22;57.55
81961;BME280;71462;50.650;6.888;2023-08-24T06:23:19;99693.38;;;19.52;56.90
81961;BME280;71462;50.650;6.888;2023-08-24T06:25:22;99685.50;;;19.47;56.84
81961;BME280;71462;50.650;6.888;2023-08-24T06:27:25;99700.63;;;19.48;57.52
81961;BME280;71462;50.650;6.888;2023-08-24T06:29:28;99705.38;;;19.39;58.31
81961;BME280;71462;50.650;6.888;2023-08-24T06:31:31;99710.75;;;19.64;57.87
81961;BME280;71462;50.650;6.888;2023-08-24T06:33:34;99711.19;;;19.94;57.18
81961;BME280;71462;50.650;6.888;2023-08-24T06:35:38;99701.53;;;20.24;56.17
81961;BME280;71462;50.650;6.888;2023-08-24T06:37:40;99700.97;;;20.46;55.48
81961;BME280;71462;50.650;6.888;2023-08-24T06:39:44;99692.88;;;20.66;54.81
81961;BME280;71462;50.650;6.888;2023-08-24T06:41:47;99684.09;;;20.88;55.19
81961;BME280;71462;50.650;6.888;2023-08-24T06:43:50;99682.25;;;21.08;54.42
81961;BME280;71462;50.650;6.888;2023-08-24T06:45:55;99671.72;;;20.91;53.83
81961;BME280;71462;50.650;6.888;2023-08-24T06:47:57;99662.22;;;21.16;53.84
81961;BME280;71462;50.650;6.888;2023-08-24T06:49:59;99662.31;;;21.20;53.20
81961;BME280;71462;50.650;6.888;2023-08-24T06:52:03;99657.22;;;21.18;53.76
81961;BME280;71462;50.650;6.888;2023-08-24T06:54:07;99654.94;;;21.20;53.43
81961;BME280;71462;50.650;6.888;2023-08-24T06:56:12;99653.56;;;20.95;53.98
81961;BME280;71462;50.650;6.888;2023-08-24T06:58:15;99652.34;;;21.27;53.44
81961;BME280;71462;50.650;6.888;2023-08-24T07:00:19;99649.00;;;21.53;52.92
81961;BME280;71462;50.650;6.888;2023-08-24T07:02:25;99638.97;;;21.57;52.45
81961;BME280;71462;50.650;6.888;2023-08-24T07:04:28;99646.19;;;21.69;52.36
81961;BME280;71462;50.650;6.888;2023-08-24T07:06:33;99650.94;;;21.72;51.53
81961;BME280;71462;50.650;6.888;2023-08-24T07:08:36;99650.41;;;21.86;51.31
81961;BME280;71462;50.650;6.888;2023-08-24T07:10:39;99648.03;;;21.65;51.41
81961;BME280;71462;50.650;6.888;2023-08-24T07:12:45;99647.09;;;21.73;52.39
81961;BME280;71462;50.650;6.888;2023-08-24T07:14:48;99643.94;;;21.94;51.47
81961;BME280;71462;50.650;6.888;2023-08-24T07:16:51;99641.75;;;21.80;51.18
81961;BME280;71462;50.650;6.888;2023-08-24T07:18:54;99640.50;;;21.97;51.50
81961;BME280;71462;50.650;6.888;2023-08-24T07:20:57;99638.13;;;21.95;51.62
81961;BME280;71462;50.650;6.888;2023-08-24T07:22:59;99630.50;;;21.62;51.98
81961;BME280;71462;50.650;6.888;2023-08-24T07:25:04;99632.88;;;21.83;51.50
81961;BME280;71462;50.650;6.888;2023-08-24T07:27:07;99635.59;;;21.83;52.89
81961;BME280;71462;50.650;6.888;2023-08-24T07:29:11;99629.72;;;21.62;51.90
81961;BME280;71462;50.650;6.888;2023-08-24T07:31:14;99627.66;;;21.55;52.52
81961;BME280;71462;50.650;6.888;2023-08-24T07:33:16;99620.66;;;21.73;51.74
81961;BME280;71462;50.650;6.888;2023-08-24T07:35:24;99613.94;;;21.90;51.32
81961;BME280;71462;50.650;6.888;2023-08-24T07:37:27;99617.38;;;21.87;51.77
81961;BME280;71462;50.650;6.888;2023-08-24T07:39:30;99614.44;;;22.19;51.07
81961;BME280;71462;50.650;6.888;2023-08-24T07:41:33;99611.50;;;22.54;50.80
81961;BME280;71462;50.650;6.888;2023-08-24T07:43:36;99615.13;;;22.91;50.36
81961;BME280;71462;50.650;6.888;2023-08-24T07:45:40;99608.47;;;23.15;49.77
81961;BME280;71462;50.650;6.888;2023-08-24T07:47:43;99613.75;;;23.01;49.56
81961;BME280;71462;50.650;6.888;2023-08-24T07:49:45;99618.53;;;23.11;48.55
81961;BME280;71462;50.650;6.888;2023-08-24T07:51:47;99613.81;;;23.38;49.49
81961;BME280;71462;50.650;6.888;2023-08-24T07:53:50;99613.00;;;23.71;48.28
81961;BME280;71462;50.650;6.888;2023-08-24T07:55:54;99607.13;;;24.10;46.37
81961;BME280;71462;50.650;6.888;2023-08-24T07:57:58;99599.47;;;24.26;46.49
81961;BME280;71462;50.650;6.888;2023-08-24T08:00:01;99613.22;;;24.40;46.23
81961;BME280;71462;50.650;6.888;2023-08-24T08:02:09;99614.25;;;24.80;45.90
81961;BME280;71462;50.650;6.888;2023-08-24T08:04:12;99616.59;;;24.81;44.38
81961;BME280;71462;50.650;6.888;2023-08-24T08:06:15;99618.75;;;25.17;44.77
81961;BME280;71462;50.650;6.888;2023-08-24T08:08:17;99607.06;;;25.27;44.69
81961;BME280;71462;50.650;6.888;2023-08-24T08:10:21;99601.50;;;24.95;44.84
81961;BME280;71462;50.650;6.888;2023-08-24T08:12:23;99603.88;;;25.10;45.54
81961;BME280;71462;50.650;6.888;2023-08-24T08:14:27;99602.31;;;24.44;46.09
81961;BME280;71462;50.650;6.888;2023-08-24T08:16:30;99600.91;;;24.13;47.23
81961;BME280;71462;50.650;6.888;2023-08-24T08:18:38;99603.16;;;24.04;47.41
81961;BME280;71462;50.650;6.888;2023-08-24T08:20:41;99602.81;;;24.09;47.12
81961;BME280;71462;50.650;6.888;2023-08-24T08:22:43;99605.38;;;23.91;46.81
81961;BME280;71462;50.650;6.888;2023-08-24T08:24:45;99606.28;;;24.02;47.50
81961;BME280;71462;50.650;6.888;2023-08-24T08:26:49;99611.41;;;24.11;47.41
81961;BME280;71462;50.650;6.888;2023-08-24T08:28:53;99606.44;;;24.24;48.02
81961;BME280;71462;50.650;6.888;2023-08-24T08:30:56;99604.03;;;24.66;46.34
81961;BME280;71462;50.650;6.888;2023-08-24T08:32:59;99607.63;;;24.81;44.99
81961;BME280;71462;50.650;6.888;2023-08-24T08:35:05;99609.38;;;25.18;44.57
81961;BME280;71462;50.650;6.888;2023-08-24T08:37:08;99605.53;;;25.33;44.50
81961;BME280;71462;50.650;6.888;2023-08-24T08:39:11;99597.97;;;24.98;43.56
81961;BME280;71462;50.650;6.888;2023-08-24T08:41:22;99607.91;;;25.38;43.50
81961;BME280;71462;50.650;6.888;2023-08-24T08:43:25;99598.84;;;25.27;42.10
81961;BME280;71462;50.650;6.888;2023-08-24T08:45:28;99606.97;;;24.95;42.57
81961;BME280;71462;50.650;6.888;2023-08-24T08:47:33;99602.66;;;24.97;44.44
81961;BME280;71462;50.650;6.888;2023-08-24T08:49:37;99590.22;;;25.10;44.08
81961;BME280;71462;50.650;6.888;2023-08-24T08:51:43;99585.16;;;25.20;43.57
81961;BME280;71462;50.650;6.888;2023-08-24T08:53:46;99570.81;;;25.55;43.39
81961;BME280;71462;50.650;6.888;2023-08-24T08:55:51;99570.41;;;25.53;42.15
81961;BME280;71462;50.650;6.888;2023-08-24T08:57:58;99561.75;;;25.40;43.10
81961;BME280;71462;50.650;6.888;2023-08-24T09:00:02;99553.97;;;25.49;42.89
81961;BME280;71462;50.650;6.888;2023-08-24T09:02:05;99550.88;;;25.61;42.69
81961;BME280;71462;50.650;6.888;2023-08-24T09:04:11;99540.34;;;25.95;42.24
81961;BME280;71462;50.650;6.888;2023-08-24T09:06:14;99537.59;;;25.74;41.98
81961;BME280;71462;50.650;6.888;2023-08-24T09:08:18;99542.28;;;25.88;41.40
81961;BME280;71462;50.650;6.888;2023-08-24T09:10:22;99547.00;;;26.05;40.68
81961;BME280;71462;50.650;6.888;2023-08-24T09:12:30;99533.28;;;25.91;40.87
81961;BME280;71462;50.650;6.888;2023-08-24T09:14:35;99525.84;;;25.98;41.10
81961;BME280;71462;50.650;6.888;2023-08-24T09:16:39;99527.78;;;25.48;42.03
81961;BME280;71462;50.650;6.888;2023-08-24T09:18:45;99510.19;;;25.85;41.62
81961;BME280;71462;50.650;6.888;2023-08-24T09:20:51;99505.50;;;25.92;40.61
81961;BME280;71462;50.650;6.888;2023-08-24T09:22:54;99505.91;;;25.94;41.55
81961;BME280;71462;50.650;6.888;2023-08-24T09:25:00;99495.72;;;25.95;41.04
81961;BME280;71462;50.650;6.888;2023-08-24T09:27:16;99486.28;;;26.24;40.05
81961;BME280;71462;50.650;6.888;2023-08-24T09:29:19;99485.13;;;26.25;39.92
81961;BME280;71462;50.650;6.888;2023-08-24T09:31:23;99477.69;;;26.15;39.61
81961;BME280;71462;50.650;6.888;2023-08-24T09:33:26;99476.06;;;26.39;39.44
81961;BME280;71462;50.650;6.888;2023-08-24T09:35:33;99474.16;;;26.18;39.22
81961;BME280;71462;50.650;6.888;2023-08-24T09:37:37;99462.81;;;26.16;39.26
81961;BME280;71462;50.650;6.888;2023-08-24T09:39:39;99470.22;;;26.37;38.67
81961;BME280;71462;50.650;6.888;2023-08-24T09:41:44;99469.00;;;26.42;37.94
81961;BME280;71462;50.650;6.888;2023-08-24T09:43:47;99484.66;;;26.62;37.48
81961;BME280;71462;50.650;6.888;2023-08-24T09:45:52;99487.31;;;26.73;36.36
81961;BME280;71462;50.650;6.888;2023-08-24T09:47:54;99481.88;;;26.59;37.49
81961;BME280;71462;50.650;6.888;2023-08-24T09:49:57;99485.06;;;26.47;38.06
81961;BME280;71462;50.650;6.888;2023-08-24T09:52:00;99491.66;;;26.56;36.81
81961;BME280;71462;50.650;6.888;2023-08-24T09:54:05;99496.47;;;26.34;37.38
81961;BME280;71462;50.650;6.888;2023-08-24T09:56:11;99498.84;;;26.25;37.36
81961;BME280;71462;50.650;6.888;2023-08-24T09:58:18;99502.25;;;26.51;36.62
81961;BME280;71462;50.650;6.888;2023-08-24T10:00:22;99509.59;;;26.86;35.28
81961;BME280;71462;50.650;6.888;2023-08-24T10:02:28;99504.22;;;26.54;36.42
81961;BME280;71462;50.650;6.888;2023-08-24T10:04:33;99498.34;;;26.59;35.56
81961;BME280;71462;50.650;6.888;2023-08-24T10:06:38;99500.28;;;26.55;36.54
81961;BME280;71462;50.650;6.888;2023-08-24T10:08:44;99501.06;;;26.66;35.99
81961;BME280;71462;50.650;6.888;2023-08-24T10:10:53;99494.28;;;26.95;35.89
81961;BME280;71462;50.650;6.888;2023-08-24T10:12:58;99500.38;;;27.32;35.02
81961;BME280;71462;50.650;6.888;2023-08-24T10:15:03;99507.97;;;27.65;34.47
81961;BME280;71462;50.650;6.888;2023-08-24T10:17:09;99510.38;;;27.60;33.05
81961;BME280;71462;50.650;6.888;2023-08-24T10:19:15;99512.72;;;27.57;34.15
81961;BME280;71462;50.650;6.888;2023-08-24T10:21:19;99525.00;;;27.39;34.83
81961;BME280;71462;50.650;6.888;2023-08-24T10:23:21;99522.97;;;27.50;34.25
81961;BME280;71462;50.650;6.888;2023-08-24T10:25:25;99525.06;;;27.87;33.36
81961;BME280;71462;50.650;6.888;2023-08-24T10:27:29;99538.38;;;27.92;33.65
81961;BME280;71462;50.650;6.888;2023-08-24T10:29:32;99530.66;;;27.76;33.08
81961;BME280;71462;50.650;6.888;2023-08-24T10:31:37;99532.25;;;27.70;32.94
81961;BME280;71462;50.650;6.888;2023-08-24T10:33:40;99526.69;;;27.81;33.09
81961;BME280;71462;50.650;6.888;2023-08-24T10:35:42;99524.53;;;27.51;33.08
81961;BME280;71462;50.650;6.888;2023-08-24T10:37:52;99536.25;;;27.58;33.41
81961;BME280;71462;50.650;6.888;2023-08-24T10:39:55;99535.78;;;27.71;33.91
81961;BME280;71462;50.650;6.888;2023-08-24T10:42:00;99543.06;;;27.95;34.64
81961;BME280;71462;50.650;6.888;2023-08-24T10:44:05;99539.13;;;27.96;32.58
81961;BME280;71462;50.650;6.888;2023-08-24T10:46:14;99540.81;;;28.24;32.99
81961;BME280;71462;50.650;6.888;2023-08-24T10:48:19;99535.53;;;28.44;32.25
81961;BME280;71462;50.650;6.888;2023-08-24T10:50:24;99537.56;;;28.36;31.59
81961;BME280;71462;50.650;6.888;2023-08-24T10:52:31;99536.94;;;28.59;32.39
81961;BME280;71462;50.650;6.888;2023-08-24T10:54:42;99523.22;;;28.56;31.55
81961;BME280;71462;50.650;6.888;2023-08-24T10:56:53;99522.03;;;28.57;31.91